Halstad, Minnesota
Current Conditions -  °F | °C
As of 5:53 PM on Saturday 22 Nov 2014 (Local Time) from KFAR Reporting Station
Clear Clear  
Wind Chill: 30°   Ceiling: Unl
Heat Index: 38°   Visibility: 10mi
Dew Point: 30°   Wind: 14mph
Humidity: 73%   Direction: 170°S
Pressure: 29.44"   Gusts: NA
Location:  47.35°N, 96.83°W
Report Text: KFAR 222353Z 17012KT 10SM CLR 03/M01 A2944 RMK AO2 SLP980 T00331011 10078 20033 55006
Loading
Personal Weather Stations






























Interactive Weather Map New forecast layout! Learn more

10-Day Weather Forecast

Advertisements
Track Severe Weather on mobile